South Range, WI

5:41 PM CDT on August 17, 2017 (GMT -0500)
County Road V | | Change Station
Active Advisory: Beach Hazard Statement

Elev 1071 ft 46.55 °N, 91.95 °W | Updated 3 seconds ago

Rain
Rain
62.8 °F
Feels Like 62.8 °F
N
6.0
Wind Variable Wind from NNW
Gusts 6.0 mph

Today
High -- | Low -- °F
--% Chance of Precip.
Yesterday
High -- | Low -- °F
Precip. -- in
Pressure 29.72 in
Visibility 10.0 miles
Clouds Overcast 2000 ft
Dew Point 54 °F
Humidity 73%
Rainfall 0.48 in
Snow Depth Not available.
6:09 AM 8:13 PM
Waning Crescent, 19% visible
METAR KDYT 172234Z AUTO 33012G17KT 10SM -RA OVC020 19/17 A2972 RMK AO2
Pressure 29.72 in
Visibility 10.0 miles
Clouds Overcast 2000 ft
Dew Point 54 °F
Humidity 73%
Rainfall 0.48 in
Snow Depth Not available.
6:09 AM 8:13 PM
Waning Crescent, 19% visible
METAR KDYT 172234Z AUTO 33012G17KT 10SM -RA OVC020 19/17 A2972 RMK AO2

Get Your Daily Forecast Email!

Thanks for signing up!

Be on the lookout for a verification email in your inbox.

You'll start receiving severe weather alerts in your inbox..

×

10-Day Weather Forecast

Almanac

Astronomy

Aug. 17, 2017 Rise Set
Actual Time
Civil Twilight
Nautical Twilight
Astronomical Twilight
Moon
Length of Visible Light
Length of Day
Tomorrow will be .
, % of the Moon is Illuminated

Today's Extremes

State Highs State Lows

Community

WunderPhotos

Category 6

Welcome to Category 6. This is the collective home for Weather Underground's featured writeups by Dr. Jeff Masters (right), Bob Henson (left), Chris Burt, and other regular contributors.

Nearby

Air Quality

  Air Quality AQ Index Pollutant
Not available.

Snow Depth

Station Depth Elevation

Earthquake Activity

City Distance Mag. Time & Date
Minimum magnitude displayed is 2.5.

Coastal Water Temperatures

Place Temperature

Stations

Nearby Weather Stations

Station Location Temp. Windchill Dew Point Humidity Wind Precip. Elev Updated Type
                   

Watches & Warnings

Beach Hazard Statement
Issued: 5:17 AM CDT Aug. 17, 2017 – National Weather Service

... Beach hazards statement in effect through this evening...

The National Weather Service in Duluth has issued a beach hazards
statement for dangerous swimming conditions, which is in effect through
this evening.

* Location... Park Point beach

* dangerous swimming conditions are expected along the Lake
Superior shoreline due to high wave action and strong rip
currents.

* High wave action alone can make swimming difficult on days
such as this. Incoming waves in rapid succession can tire a
swimmer quickly.

Precautionary/preparedness actions...

Rip currents are powerful channels of water flowing quickly away
from shore... which occur most often at low spots in sandbars...
near shoreline structures such as peninsulas or breakwalls... and
near river mouths.

For additional safety information and precautions... please visit
www.Weather.Gov/Duluth